createdAt,value
2019-04-26T00:00:41.174Z,47.07
2019-04-26T00:03:12.088Z,47.42
2019-04-26T00:05:41.327Z,47.67
2019-04-26T00:08:12.442Z,47.72
2019-04-26T00:10:48.933Z,47.19
2019-04-26T00:13:34.796Z,47.61
2019-04-26T00:16:28.518Z,47.46
2019-04-26T00:18:57.918Z,47.66
2019-04-26T00:21:27.389Z,47.29
2019-04-26T00:23:56.967Z,47.27
2019-04-26T00:26:26.492Z,48.07
2019-04-26T00:28:56.057Z,47.91
2019-04-26T00:31:27.033Z,48.13
2019-04-26T00:33:56.322Z,48.41
2019-04-26T00:36:28.414Z,48.85
2019-04-26T00:38:57.708Z,48.59
2019-04-26T00:41:28.053Z,49.19
2019-04-26T00:43:57.669Z,49.40
2019-04-26T00:46:29.427Z,49.54
2019-04-26T00:49:01.663Z,49.70
2019-04-26T00:51:31.289Z,49.51
2019-04-26T00:54:01.173Z,50.11
2019-04-26T00:56:31.196Z,49.88
2019-04-26T00:59:01.058Z,49.92
2019-04-26T01:01:36.036Z,49.85
2019-04-26T01:04:05.887Z,49.57
2019-04-26T01:06:38.748Z,50.15
2019-04-26T01:09:08.223Z,50.03
2019-04-26T01:11:37.473Z,50.48
2019-04-26T01:14:07.024Z,49.85
2019-04-26T01:16:36.279Z,50.29
2019-04-26T01:19:08.667Z,50.56
2019-04-26T01:21:45.786Z,50.69
2019-04-26T01:24:18.239Z,50.70
2019-04-26T01:26:52.705Z,50.06
2019-04-26T01:29:23.751Z,49.98
2019-04-26T01:32:01.696Z,50.00
2019-04-26T01:34:32.386Z,50.01
2019-04-26T01:48:27.879Z,50.31
2019-04-26T01:50:59.048Z,51.26
2019-04-26T01:53:28.800Z,51.85
2019-04-26T01:55:58.528Z,52.47
2019-04-26T01:58:29.285Z,52.64
2019-04-26T02:01:13.271Z,54.21
2019-04-26T02:03:44.048Z,55.95
2019-04-26T02:06:29.109Z,57.07
2019-04-26T02:08:50.983Z,56.95
2019-04-26T02:11:20.536Z,56.59
2019-04-26T02:13:49.800Z,56.47
2019-04-26T02:16:19.521Z,56.22
2019-04-26T02:18:48.814Z,57.17
2019-04-26T02:21:23.632Z,57.03
2019-04-26T02:24:13.440Z,57.24
2019-04-26T02:26:47.965Z,57.40
2019-04-26T02:29:25.234Z,58.26
2019-04-26T02:32:08.393Z,58.34
2019-04-26T02:34:38.791Z,58.08
2019-04-26T02:37:10.851Z,57.86
2019-04-26T02:39:41.766Z,57.40
2019-04-26T02:42:38.118Z,57.14
2019-04-26T02:45:54.836Z,56.99
2019-04-26T02:49:00.922Z,56.97
2019-04-26T02:51:36.401Z,56.55
2019-04-26T02:54:45.713Z,55.92
2019-04-26T02:57:25.877Z,56.15
2019-04-26T03:00:01.955Z,56.09
2019-04-26T03:02:33.263Z,55.59
2019-04-26T03:05:08.963Z,55.77
2019-04-26T03:07:59.393Z,55.62
2019-04-26T03:10:43.790Z,55.40
2019-04-26T03:13:25.838Z,55.77
2019-04-26T03:16:21.590Z,55.88
2019-04-26T03:19:14.419Z,55.67
2019-04-26T03:22:12.466Z,55.83
2019-04-26T03:24:50.094Z,55.36
2019-04-26T03:27:43.525Z,55.21
2019-04-26T03:30:42.347Z,55.17
2019-04-26T03:33:53.195Z,54.70
2019-04-26T03:36:37.902Z,54.75
2019-04-26T03:39:26.070Z,54.94
2019-04-26T03:42:13.212Z,56.14
2019-04-26T03:44:50.704Z,56.65
2019-04-26T03:47:24.282Z,56.31
2019-04-26T03:50:05.083Z,56.43
2019-04-26T03:53:09.274Z,56.77
2019-04-26T03:56:20.591Z,56.42
2019-04-26T03:59:08.715Z,56.32
2019-04-26T04:01:49.801Z,56.93
2019-04-26T04:04:45.537Z,57.16
2019-04-26T04:07:36.759Z,56.55
2019-04-26T04:10:06.603Z,56.22
2019-04-26T04:12:47.760Z,56.30
2019-04-26T04:15:23.198Z,55.90
2019-04-26T04:18:02.015Z,55.87
2019-04-26T04:21:01.179Z,55.84
2019-04-26T04:23:50.470Z,55.64
2019-04-26T04:26:26.308Z,55.44
2019-04-26T04:29:39.340Z,55.39
2019-04-26T04:32:00.156Z,55.53
2019-04-26T04:34:37.615Z,55.98
2019-04-26T04:37:09.220Z,56.41
2019-04-26T04:40:10.990Z,56.07
2019-04-26T04:43:24.683Z,55.98
2019-04-26T04:46:26.636Z,56.19
2019-04-26T04:49:13.580Z,56.98
2019-04-26T04:51:57.931Z,58.10
2019-04-26T04:54:42.664Z,59.21
2019-04-26T04:57:48.083Z,61.75
2019-04-26T05:01:09.130Z,62.05
2019-04-26T05:03:51.057Z,63.60
2019-04-26T05:07:09.762Z,66.00
2019-04-26T05:10:01.845Z,65.45
2019-04-26T05:12:45.837Z,64.31
2019-04-26T05:15:48.459Z,65.80
2019-04-26T05:18:35.820Z,66.94
2019-04-26T05:21:30.650Z,65.93
2019-04-26T05:24:33.648Z,66.45
2019-04-26T05:28:04.001Z,67.92
2019-04-26T05:31:10.786Z,67.33
2019-04-26T05:34:21.813Z,65.98
2019-04-26T05:37:37.350Z,65.17
2019-04-26T05:40:37.399Z,64.42
2019-04-26T05:44:14.895Z,67.16
2019-04-26T05:47:26.613Z,66.92
2019-04-26T05:50:44.669Z,68.27
2019-04-26T05:54:14.755Z,67.44
2019-04-26T05:57:08.240Z,66.28
2019-04-26T06:00:03.637Z,66.14
2019-04-26T06:03:08.643Z,65.34
2019-04-26T06:06:28.376Z,62.94
2019-04-26T06:09:32.472Z,63.45
2019-04-26T06:12:12.476Z,63.87
2019-04-26T06:15:17.910Z,62.14
2019-04-26T06:18:25.249Z,61.13
2019-04-26T06:21:15.901Z,60.79
2019-04-26T06:24:21.348Z,60.51
2019-04-26T06:27:40.855Z,58.97
2019-04-26T06:30:19.283Z,59.85
2019-04-26T06:33:10.960Z,58.80
2019-04-26T06:35:45.376Z,58.02
2019-04-26T06:39:30.043Z,57.53
2019-04-26T06:42:45.326Z,56.86
2019-04-26T06:45:49.503Z,57.40
2019-04-26T06:48:57.374Z,57.30
2019-04-26T06:51:34.116Z,57.48
2019-04-26T06:54:34.208Z,56.88
2019-04-26T06:57:57.228Z,56.84
2019-04-26T07:00:31.291Z,55.95
2019-04-26T07:03:27.840Z,54.80
2019-04-26T07:06:00.366Z,53.59
2019-04-26T07:08:56.427Z,52.25
2019-04-26T07:12:15.209Z,51.33
2019-04-26T07:15:08.765Z,51.13
2019-04-26T07:18:12.765Z,51.09
2019-04-26T07:21:00.636Z,50.57
2019-04-26T07:24:24.828Z,49.10
2019-04-26T07:27:08.897Z,46.86
2019-04-26T07:30:07.109Z,42.25
2019-04-26T07:33:15.963Z,37.39
2019-04-26T07:36:14.195Z,33.49
2019-04-26T07:39:36.784Z,31.62
2019-04-26T07:42:53.475Z,30.72
2019-04-26T07:45:45.289Z,30.43
2019-04-26T07:49:08.064Z,29.39
2019-04-26T07:52:17.321Z,28.04
2019-04-26T07:55:18.136Z,26.98
2019-04-26T07:58:19.742Z,27.52
2019-04-26T08:00:58.713Z,29.27
2019-04-26T08:03:38.735Z,31.31
2019-04-26T08:06:30.031Z,31.68
2019-04-26T08:09:26.020Z,31.83
2019-04-26T08:11:53.054Z,32.89
2019-04-26T08:14:43.373Z,35.01
2019-04-26T08:17:56.585Z,34.95
2019-04-26T08:20:43.555Z,33.43
2019-04-26T08:23:36.988Z,31.59
2019-04-26T08:25:50.032Z,31.95
2019-04-26T08:28:22.157Z,32.86
2019-04-26T08:30:55.092Z,33.25
2019-04-26T08:33:34.150Z,35.86
2019-04-26T08:36:07.271Z,37.12
2019-04-26T08:38:38.855Z,38.00
2019-04-26T08:41:09.842Z,35.57
2019-04-26T08:44:09.652Z,34.68
2019-04-26T08:46:56.947Z,34.13
2019-04-26T08:49:39.186Z,33.71
2019-04-26T08:52:14.700Z,33.46
2019-04-26T08:54:53.608Z,32.83
2019-04-26T08:57:27.022Z,32.67
2019-04-26T08:59:58.727Z,33.85
2019-04-26T09:02:48.842Z,35.89
2019-04-26T09:05:51.378Z,39.05
2019-04-26T09:08:25.327Z,39.37
2019-04-26T09:10:57.469Z,39.70
2019-04-26T09:13:29.712Z,36.50
2019-04-26T09:16:12.742Z,34.62
2019-04-26T09:18:43.917Z,32.87
2019-04-26T09:21:17.008Z,32.44
2019-04-26T09:24:24.936Z,33.50
2019-04-26T09:27:26.320Z,34.69
2019-04-26T09:30:33.143Z,36.23
2019-04-26T09:33:03.811Z,36.97
2019-04-26T09:35:33.073Z,38.52
2019-04-26T09:38:02.128Z,40.01
2019-04-26T09:40:33.271Z,41.11
2019-04-26T09:43:17.316Z,38.34
2019-04-26T09:46:20.400Z,36.64
2019-04-26T09:48:58.516Z,36.67
2019-04-26T09:51:28.227Z,37.74
2019-04-26T09:53:59.408Z,37.26
2019-04-26T09:56:28.642Z,38.36
2019-04-26T09:59:01.476Z,36.00
2019-04-26T10:01:31.899Z,37.27
2019-04-26T10:04:01.171Z,34.37
2019-04-26T10:06:32.902Z,31.76
2019-04-26T10:09:02.128Z,30.35
2019-04-26T10:11:39.530Z,29.68
2019-04-26T10:14:13.666Z,33.17
2019-04-26T10:17:11.603Z,32.95
2019-04-26T10:19:46.315Z,32.73
2019-04-26T10:22:15.613Z,34.53
2019-04-26T10:24:45.172Z,36.96
2019-04-26T10:27:14.871Z,38.53
2019-04-26T10:29:45.156Z,38.70
2019-04-26T10:32:14.972Z,37.70
2019-04-26T10:34:47.341Z,37.44
2019-04-26T10:37:15.651Z,35.61
2019-04-26T10:39:44.885Z,32.21
2019-04-26T10:42:17.341Z,30.58
2019-04-26T10:44:46.963Z,30.48
2019-04-26T10:47:16.520Z,29.78
2019-04-26T10:49:47.761Z,32.14
2019-04-26T10:52:41.991Z,32.45
2019-04-26T10:55:42.300Z,35.32
2019-04-26T10:58:20.534Z,35.78
2019-04-26T11:00:52.664Z,35.03
2019-04-26T11:03:22.996Z,34.30
2019-04-26T11:05:53.817Z,33.46
2019-04-26T11:08:23.870Z,33.86
2019-04-26T11:10:53.438Z,34.31
2019-04-26T11:13:23.781Z,34.22
2019-04-26T11:15:53.008Z,33.98
2019-04-26T11:18:27.329Z,33.72
2019-04-26T11:20:53.505Z,34.64
2019-04-26T11:23:22.721Z,33.84
2019-04-26T11:25:52.482Z,32.62
2019-04-26T11:28:22.943Z,32.92
2019-04-26T11:30:54.003Z,35.59
2019-04-26T11:33:23.168Z,37.01
2019-04-26T11:35:52.219Z,36.99
2019-04-26T11:38:21.933Z,35.99
2019-04-26T11:41:04.982Z,36.05
2019-04-26T11:46:07.813Z,35.68
2019-04-26T11:48:37.051Z,37.95
2019-04-26T11:51:07.035Z,38.08
2019-04-26T11:53:40.549Z,35.97
2019-04-26T11:56:09.895Z,35.86
2019-04-26T11:58:40.604Z,37.19
2019-04-26T12:01:11.523Z,39.43
2019-04-26T12:03:43.701Z,37.27
2019-04-26T12:06:31.864Z,37.21
2019-04-26T12:09:09.378Z,37.24
2019-04-26T12:11:48.899Z,39.58
2019-04-26T12:14:19.754Z,38.46
2019-04-26T12:16:48.063Z,38.91
2019-04-26T12:19:14.246Z,39.18
2019-04-26T12:21:42.917Z,40.96
2019-04-26T12:24:13.460Z,44.08
2019-04-26T12:26:46.168Z,45.42
2019-04-26T12:29:16.544Z,45.52
2019-04-26T12:31:45.569Z,45.49
2019-04-26T12:34:17.859Z,47.22
2019-04-26T12:36:45.828Z,48.01
2019-04-26T12:39:17.109Z,49.78
2019-04-26T12:41:46.368Z,50.30
2019-04-26T12:44:16.311Z,49.95
2019-04-26T12:46:51.535Z,48.27
2019-04-26T12:49:24.284Z,49.49
2019-04-26T12:51:55.322Z,49.21
2019-04-26T12:54:24.575Z,50.06
2019-04-26T12:56:55.332Z,50.97
2019-04-26T12:59:26.723Z,51.52
2019-04-26T13:02:05.371Z,52.11
2019-04-26T13:04:35.979Z,53.02
2019-04-26T13:07:23.790Z,53.55
2019-04-26T13:10:11.648Z,52.72
2019-04-26T13:12:51.366Z,53.46
2019-04-26T13:16:14.023Z,52.51
2019-04-26T13:18:45.188Z,51.67
2019-04-26T13:21:15.447Z,52.77
2019-04-26T13:23:44.708Z,52.94
2019-04-26T13:26:14.940Z,53.11
2019-04-26T13:28:52.421Z,53.15
2019-04-26T13:31:23.102Z,53.26
2019-04-26T13:33:54.431Z,53.82
2019-04-26T13:36:29.138Z,54.59
2019-04-26T13:38:57.241Z,54.76
2019-04-26T13:41:27.966Z,53.88
2019-04-26T13:44:01.230Z,53.27
2019-04-26T13:46:39.911Z,54.27
2019-04-26T13:49:20.131Z,55.31
2019-04-26T13:51:49.396Z,55.10
2019-04-26T13:54:21.033Z,54.54
2019-04-26T13:56:49.554Z,55.36
2019-04-26T13:59:19.221Z,56.40
2019-04-26T14:01:49.760Z,55.96
2019-04-26T14:04:21.355Z,56.50
2019-04-26T14:06:50.543Z,56.71
2019-04-26T14:09:19.762Z,56.48
2019-04-26T14:11:49.348Z,57.23
2019-04-26T14:14:18.569Z,56.83
2019-04-26T14:16:47.802Z,56.58
2019-04-26T14:19:17.408Z,57.62
2019-04-26T14:21:47.282Z,57.43
2019-04-26T14:24:33.751Z,57.75
2019-04-26T14:27:14.979Z,57.60
2019-04-26T14:29:43.498Z,57.19
2019-04-26T14:32:12.749Z,56.82
2019-04-26T14:34:45.213Z,57.20
2019-04-26T14:37:15.529Z,56.85
2019-04-26T14:39:50.547Z,57.45
2019-04-26T14:42:32.615Z,56.86
2019-04-26T14:44:50.080Z,57.19
2019-04-26T14:47:19.432Z,57.08
2019-04-26T14:49:48.778Z,57.75
2019-04-26T14:52:18.917Z,58.51
2019-04-26T14:54:48.141Z,59.00
2019-04-26T14:57:24.466Z,59.21
2019-04-26T14:59:56.818Z,59.24
2019-04-26T15:02:47.230Z,60.10
2019-04-26T15:05:31.158Z,59.58
2019-04-26T15:08:03.925Z,59.91
2019-04-26T15:10:43.875Z,60.01
2019-04-26T15:13:16.985Z,60.50
2019-04-26T15:15:39.770Z,61.85
2019-04-26T15:18:09.012Z,62.51
2019-04-26T15:20:38.278Z,64.71
2019-04-26T15:23:07.495Z,63.09
2019-04-26T15:25:36.956Z,63.01
2019-04-26T15:28:06.990Z,63.25
2019-04-26T15:30:45.965Z,62.38
2019-04-26T15:33:12.700Z,62.87
2019-04-26T15:35:46.576Z,64.00
2019-04-26T15:38:16.242Z,65.67
2019-04-26T15:41:20.030Z,66.06
2019-04-26T15:44:13.465Z,66.48
2019-04-26T15:47:14.143Z,65.65
2019-04-26T15:49:53.195Z,65.64
2019-04-26T15:52:23.533Z,65.60
2019-04-26T15:54:58.567Z,67.71
2019-04-26T15:57:31.275Z,68.24
2019-04-26T15:59:59.275Z,68.56
2019-04-26T16:02:29.377Z,70.15
2019-04-26T16:04:58.607Z,68.50
2019-04-26T16:07:29.252Z,70.42
2019-04-26T16:09:58.586Z,72.59
2019-04-26T16:12:28.275Z,72.99
2019-04-26T16:14:57.802Z,71.95
2019-04-26T16:17:30.835Z,72.99
2019-04-26T16:20:01.827Z,72.79
2019-04-26T16:22:33.198Z,72.10
2019-04-26T16:25:05.284Z,71.89
2019-04-26T16:27:34.734Z,71.80
2019-04-26T16:30:39.653Z,71.50
2019-04-26T16:33:18.999Z,70.79
2019-04-26T16:35:49.980Z,71.69
2019-04-26T16:38:35.438Z,72.19
2019-04-26T16:41:05.177Z,72.47
2019-04-26T16:43:40.717Z,72.86
2019-04-26T16:46:14.751Z,73.20
2019-04-26T16:48:39.943Z,75.50
2019-04-26T16:51:10.021Z,76.98
2019-04-26T16:53:58.496Z,77.29
2019-04-26T16:56:11.647Z,78.57
2019-04-26T16:58:44.906Z,79.84
2019-04-26T17:01:15.340Z,80.81
2019-04-26T17:03:47.993Z,82.84
2019-04-26T17:06:15.998Z,82.87
2019-04-26T17:08:50.138Z,85.18
2019-04-26T17:11:16.589Z,86.59
2019-04-26T17:13:50.604Z,86.66
2019-04-26T17:16:17.681Z,87.51
2019-04-26T17:18:47.396Z,88.82
2019-04-26T17:21:23.926Z,88.55
2019-04-26T17:23:56.027Z,89.13
2019-04-26T17:26:36.426Z,89.61
2019-04-26T17:29:07.477Z,90.77
2019-04-26T17:31:36.700Z,91.34
2019-04-26T17:34:06.103Z,91.84
2019-04-26T17:36:37.656Z,91.97
2019-04-26T17:39:10.937Z,92.29
2019-04-26T17:41:45.011Z,92.34
2019-04-26T17:44:20.581Z,93.35
2019-04-26T17:46:48.870Z,93.89
2019-04-26T17:49:21.478Z,93.49
2019-04-26T17:51:51.714Z,93.52
2019-04-26T17:54:40.786Z,94.10
2019-04-26T17:56:53.025Z,93.57
2019-04-26T17:59:33.608Z,93.64
2019-04-26T18:02:00.736Z,93.69
2019-04-26T18:04:34.372Z,93.69
2019-04-26T18:07:05.105Z,93.32
2019-04-26T18:09:41.414Z,93.50
2019-04-26T18:12:03.253Z,93.84
2019-04-26T18:14:32.079Z,94.03
2019-04-26T18:17:12.009Z,94.04
2019-04-26T18:20:07.872Z,93.81
2019-04-26T18:22:45.219Z,94.14
2019-04-26T18:25:14.842Z,93.54
2019-04-26T18:27:44.088Z,93.58
2019-04-26T18:30:14.440Z,92.94
2019-04-26T18:32:47.805Z,92.92
2019-04-26T18:35:17.244Z,92.94
2019-04-26T18:37:47.643Z,93.61
2019-04-26T18:40:20.373Z,93.35
2019-04-26T18:42:48.245Z,93.31
2019-04-26T18:45:25.878Z,93.65
2019-04-26T18:47:54.841Z,92.37
2019-04-26T18:50:24.449Z,92.22
2019-04-26T18:53:05.690Z,91.90
2019-04-26T18:55:34.990Z,92.68
2019-04-26T18:58:05.560Z,91.85
2019-04-26T19:00:38.033Z,91.04
2019-04-26T19:03:07.845Z,91.95
2019-04-26T19:05:37.094Z,90.98
2019-04-26T19:08:07.561Z,90.79
2019-04-26T19:10:37.290Z,90.96
2019-04-26T19:13:30.882Z,91.66
2019-04-26T19:16:10.581Z,91.70
2019-04-26T19:18:49.474Z,91.96
2019-04-26T19:21:32.311Z,90.28
2019-04-26T19:24:07.328Z,90.58
2019-04-26T19:26:35.005Z,91.19
2019-04-26T19:29:15.481Z,91.07
2019-04-26T19:31:34.303Z,90.88
2019-04-26T19:34:03.531Z,90.63
2019-04-26T19:36:32.983Z,90.59
2019-04-26T19:39:03.651Z,90.45
2019-04-26T19:41:33.250Z,88.88
2019-04-26T19:44:02.490Z,88.98
2019-04-26T19:46:53.969Z,89.11
2019-04-26T19:49:39.183Z,89.05
2019-04-26T19:52:34.582Z,89.79
2019-04-26T19:55:24.072Z,89.55
2019-04-26T19:57:59.386Z,89.75
2019-04-26T20:00:28.688Z,90.86
2019-04-26T20:02:57.927Z,90.23
2019-04-26T20:05:27.399Z,90.93
2019-04-26T20:07:58.498Z,91.08
2019-04-26T20:10:28.465Z,91.79
2019-04-26T20:12:58.891Z,92.33
2019-04-26T20:15:29.086Z,92.04
2019-04-26T20:17:59.952Z,92.42
2019-04-26T20:20:34.611Z,91.17
2019-04-26T20:23:05.857Z,91.08
2019-04-26T20:25:32.710Z,91.87
2019-04-26T20:28:03.179Z,91.66
2019-04-26T20:30:47.034Z,92.21
2019-04-26T20:33:18.896Z,91.88
2019-04-26T20:35:48.142Z,91.48
2019-04-26T20:38:17.376Z,91.50
2019-04-26T20:40:47.469Z,91.57
2019-04-26T20:43:24.314Z,92.03
2019-04-26T20:46:08.855Z,92.12
2019-04-26T20:48:21.580Z,92.79
2019-04-26T20:50:52.014Z,92.83
2019-04-26T20:53:21.867Z,92.44
2019-04-26T20:55:52.931Z,92.84
2019-04-26T20:58:22.182Z,92.98
2019-04-26T21:00:54.513Z,93.12
2019-04-26T21:03:26.022Z,93.14
2019-04-26T21:05:59.296Z,93.40
2019-04-26T21:08:26.771Z,92.92
2019-04-26T21:10:56.088Z,92.99
2019-04-26T21:13:30.869Z,93.37
2019-04-26T21:15:58.607Z,93.57
2019-04-26T21:18:28.172Z,93.10
2019-04-26T21:20:57.406Z,93.09
2019-04-26T21:23:27.521Z,93.13
2019-04-26T21:26:16.543Z,93.27
2019-04-26T21:28:55.654Z,92.38
2019-04-26T21:31:36.392Z,92.09
2019-04-26T21:34:12.518Z,91.66
2019-04-26T21:36:53.344Z,91.63
2019-04-26T21:39:25.726Z,91.39
2019-04-26T21:41:54.981Z,90.70
2019-04-26T21:44:24.218Z,90.80
2019-04-26T21:46:58.655Z,90.63
2019-04-26T21:49:26.607Z,91.65
2019-04-26T21:51:58.204Z,91.19
2019-04-26T21:54:27.404Z,90.63
2019-04-26T21:56:56.655Z,91.62
2019-04-26T21:59:25.867Z,91.00
2019-04-26T22:01:58.966Z,90.96
2019-04-26T22:04:28.840Z,90.82
2019-04-26T22:06:59.997Z,90.59
2019-04-26T22:09:40.443Z,91.21
2019-04-26T22:12:13.060Z,91.67
2019-04-26T22:14:46.411Z,90.72
2019-04-26T22:17:40.329Z,90.95
2019-04-26T22:20:33.668Z,91.08
2019-04-26T22:23:25.459Z,91.54
2019-04-26T22:26:00.116Z,91.81
2019-04-26T22:28:31.355Z,91.93
2019-04-26T22:30:59.274Z,90.93
2019-04-26T22:33:30.955Z,91.49
2019-04-26T22:36:00.974Z,92.25
2019-04-26T22:38:30.218Z,92.31
2019-04-26T22:40:59.443Z,91.84
2019-04-26T22:43:40.633Z,92.46
2019-04-26T22:46:29.913Z,92.32
2019-04-26T22:49:01.376Z,92.18
2019-04-26T22:51:35.899Z,91.58
2019-04-26T22:54:06.087Z,91.17
2019-04-26T22:56:37.114Z,90.89
2019-04-26T22:59:07.710Z,90.92
2019-04-26T23:01:39.239Z,90.80
2019-04-26T23:04:07.080Z,90.38
2019-04-26T23:06:36.297Z,91.20
2019-04-26T23:09:07.371Z,90.51
2019-04-26T23:11:45.274Z,90.30
2019-04-26T23:14:27.418Z,91.29
2019-04-26T23:17:14.718Z,91.66
2019-04-26T23:19:54.220Z,90.52
2019-04-26T23:22:30.793Z,91.05
2019-04-26T23:24:58.096Z,90.75
2019-04-26T23:27:26.116Z,90.55
2019-04-26T23:29:58.269Z,91.06
2019-04-26T23:32:26.304Z,90.92
2019-04-26T23:34:58.290Z,90.15
2019-04-26T23:37:28.747Z,90.65
2019-04-26T23:39:59.452Z,90.19
2019-04-26T23:42:28.671Z,90.12
2019-04-26T23:44:58.671Z,90.39
2019-04-26T23:47:31.993Z,90.50
2019-04-26T23:49:58.872Z,90.38
2019-04-26T23:52:28.844Z,90.49
2019-04-26T23:54:58.384Z,90.65
2019-04-26T23:57:31.256Z,91.10
